sensor_id;sensor_type;location;lat;lon;timestamp;pressure;altitude;pressure_sealevel;temperature;humidity
74790;BME280;63318;52.406;13.416;2023-09-19T00:02:00;100263.41;;;17.42;77.64
74790;BME280;63318;52.406;13.416;2023-09-19T00:04:28;100260.36;;;17.40;77.70
74790;BME280;63318;52.406;13.416;2023-09-19T00:06:58;100255.77;;;17.38;77.46
74790;BME280;63318;52.406;13.416;2023-09-19T00:09:26;100253.80;;;17.37;77.64
74790;BME280;63318;52.406;13.416;2023-09-19T00:11:54;100246.98;;;17.35;77.81
74790;BME280;63318;52.406;13.416;2023-09-19T00:14:26;100249.97;;;17.33;77.73
74790;BME280;63318;52.406;13.416;2023-09-19T00:16:54;100253.17;;;17.31;77.92
74790;BME280;63318;52.406;13.416;2023-09-19T00:19:22;100247.65;;;17.30;78.00
74790;BME280;63318;52.406;13.416;2023-09-19T00:21:50;100244.81;;;17.28;78.01
74790;BME280;63318;52.406;13.416;2023-09-19T00:24:18;100251.27;;;17.27;78.02
74790;BME280;63318;52.406;13.416;2023-09-19T00:26:47;100254.23;;;17.25;78.12
74790;BME280;63318;52.406;13.416;2023-09-19T00:29:15;100255.78;;;17.22;78.11
74790;BME280;63318;52.406;13.416;2023-09-19T00:31:44;100250.42;;;17.19;78.03
74790;BME280;63318;52.406;13.416;2023-09-19T00:34:12;100253.33;;;17.16;78.12
74790;BME280;63318;52.406;13.416;2023-09-19T00:36:41;100249.38;;;17.14;78.27
74790;BME280;63318;52.406;13.416;2023-09-19T00:39:09;100248.23;;;17.12;78.13
74790;BME280;63318;52.406;13.416;2023-09-19T00:41:37;100245.24;;;17.10;78.14
74790;BME280;63318;52.406;13.416;2023-09-19T00:44:06;100242.60;;;17.08;78.25
74790;BME280;63318;52.406;13.416;2023-09-19T00:46:34;100241.87;;;17.06;78.15
74790;BME280;63318;52.406;13.416;2023-09-19T00:49:02;100243.23;;;17.05;78.15
74790;BME280;63318;52.406;13.416;2023-09-19T00:51:31;100249.63;;;17.03;78.15
74790;BME280;63318;52.406;13.416;2023-09-19T00:54:00;100250.06;;;17.01;78.06
74790;BME280;63318;52.406;13.416;2023-09-19T00:56:29;100252.56;;;17.00;78.32
74790;BME280;63318;52.406;13.416;2023-09-19T00:58:58;100252.21;;;16.99;78.32
74790;BME280;63318;52.406;13.416;2023-09-19T01:01:26;100256.45;;;16.98;78.66
74790;BME280;63318;52.406;13.416;2023-09-19T01:03:54;100254.58;;;16.95;78.45
74790;BME280;63318;52.406;13.416;2023-09-19T01:06:23;100251.20;;;16.94;78.40
74790;BME280;63318;52.406;13.416;2023-09-19T01:08:51;100247.77;;;16.92;78.43
74790;BME280;63318;52.406;13.416;2023-09-19T01:11:25;100251.80;;;16.91;78.62
74790;BME280;63318;52.406;13.416;2023-09-19T01:14:01;100254.01;;;16.90;78.78
74790;BME280;63318;52.406;13.416;2023-09-19T01:16:35;100254.63;;;16.90;78.71
74790;BME280;63318;52.406;13.416;2023-09-19T01:19:30;100254.03;;;16.89;78.68
74790;BME280;63318;52.406;13.416;2023-09-19T01:22:10;100255.42;;;16.88;78.69
74790;BME280;63318;52.406;13.416;2023-09-19T01:28:04;100246.81;;;16.87;78.80
74790;BME280;63318;52.406;13.416;2023-09-19T01:30:39;100250.14;;;16.87;78.58
74790;BME280;63318;52.406;13.416;2023-09-19T01:33:08;100255.05;;;16.85;78.74
74790;BME280;63318;52.406;13.416;2023-09-19T01:35:38;100252.38;;;16.85;78.78
74790;BME280;63318;52.406;13.416;2023-09-19T01:38:07;100249.19;;;16.83;78.80
74790;BME280;63318;52.406;13.416;2023-09-19T01:40:41;100250.40;;;16.82;78.87
74790;BME280;63318;52.406;13.416;2023-09-19T01:43:12;100254.19;;;16.81;79.03
74790;BME280;63318;52.406;13.416;2023-09-19T01:45:49;100258.24;;;16.80;78.76
74790;BME280;63318;52.406;13.416;2023-09-19T01:48:25;100261.98;;;16.79;78.84
74790;BME280;63318;52.406;13.416;2023-09-19T01:50:58;100258.38;;;16.80;78.87
74790;BME280;63318;52.406;13.416;2023-09-19T01:53:30;100256.00;;;16.80;78.78
74790;BME280;63318;52.406;13.416;2023-09-19T01:56:02;100254.42;;;16.81;78.72
74790;BME280;63318;52.406;13.416;2023-09-19T01:58:36;100257.52;;;16.82;78.87
74790;BME280;63318;52.406;13.416;2023-09-19T02:01:07;100256.55;;;16.81;78.94
74790;BME280;63318;52.406;13.416;2023-09-19T02:03:37;100258.02;;;16.80;78.84
74790;BME280;63318;52.406;13.416;2023-09-19T02:06:07;100259.80;;;16.79;78.98
74790;BME280;63318;52.406;13.416;2023-09-19T02:08:35;100263.09;;;16.78;79.02
74790;BME280;63318;52.406;13.416;2023-09-19T02:11:03;100263.56;;;16.76;78.79
74790;BME280;63318;52.406;13.416;2023-09-19T02:13:32;100270.24;;;16.73;78.90
74790;BME280;63318;52.406;13.416;2023-09-19T02:16:00;100271.14;;;16.72;79.01
74790;BME280;63318;52.406;13.416;2023-09-19T02:18:28;100276.84;;;16.69;79.19
74790;BME280;63318;52.406;13.416;2023-09-19T02:20:57;100281.52;;;16.65;79.10
74790;BME280;63318;52.406;13.416;2023-09-19T02:23:25;100281.70;;;16.63;79.19
74790;BME280;63318;52.406;13.416;2023-09-19T02:25:56;100282.50;;;16.61;79.40
74790;BME280;63318;52.406;13.416;2023-09-19T02:28:25;100286.91;;;16.60;79.07
74790;BME280;63318;52.406;13.416;2023-09-19T02:30:53;100295.34;;;16.59;79.26
74790;BME280;63318;52.406;13.416;2023-09-19T02:33:21;100288.98;;;16.56;79.33
74790;BME280;63318;52.406;13.416;2023-09-19T02:35:49;100290.52;;;16.55;79.47
74790;BME280;63318;52.406;13.416;2023-09-19T02:38:18;100287.52;;;16.54;79.55
74790;BME280;63318;52.406;13.416;2023-09-19T02:40:46;100287.55;;;16.53;79.59
74790;BME280;63318;52.406;13.416;2023-09-19T02:43:14;100290.89;;;16.53;79.63
74790;BME280;63318;52.406;13.416;2023-09-19T02:45:42;100289.65;;;16.52;79.85
74790;BME280;63318;52.406;13.416;2023-09-19T02:48:11;100294.62;;;16.51;79.81
74790;BME280;63318;52.406;13.416;2023-09-19T02:50:39;100299.61;;;16.50;79.94
74790;BME280;63318;52.406;13.416;2023-09-19T02:53:07;100302.11;;;16.49;79.97
74790;BME280;63318;52.406;13.416;2023-09-19T02:55:36;100306.46;;;16.48;80.08
74790;BME280;63318;52.406;13.416;2023-09-19T02:58:05;100308.94;;;16.46;80.02
74790;BME280;63318;52.406;13.416;2023-09-19T03:00:33;100312.39;;;16.45;79.98
74790;BME280;63318;52.406;13.416;2023-09-19T03:03:02;100319.61;;;16.43;80.12
74790;BME280;63318;52.406;13.416;2023-09-19T03:05:30;100322.02;;;16.42;80.03
74790;BME280;63318;52.406;13.416;2023-09-19T03:07:59;100327.05;;;16.40;80.07
74790;BME280;63318;52.406;13.416;2023-09-19T03:10:27;100325.58;;;16.38;80.11
74790;BME280;63318;52.406;13.416;2023-09-19T03:12:56;100328.23;;;16.36;80.18
74790;BME280;63318;52.406;13.416;2023-09-19T03:15:24;100329.08;;;16.34;80.34
74790;BME280;63318;52.406;13.416;2023-09-19T03:17:52;100327.08;;;16.33;80.55
74790;BME280;63318;52.406;13.416;2023-09-19T03:20:20;100326.32;;;16.32;80.48
74790;BME280;63318;52.406;13.416;2023-09-19T03:22:49;100323.55;;;16.31;80.53
74790;BME280;63318;52.406;13.416;2023-09-19T03:25:17;100332.20;;;16.31;80.45
74790;BME280;63318;52.406;13.416;2023-09-19T03:27:46;100335.75;;;16.30;80.32
74790;BME280;63318;52.406;13.416;2023-09-19T03:30:14;100332.23;;;16.29;80.35
74790;BME280;63318;52.406;13.416;2023-09-19T03:32:46;100332.70;;;16.28;80.79
74790;BME280;63318;52.406;13.416;2023-09-19T03:35:15;100335.61;;;16.29;80.48
74790;BME280;63318;52.406;13.416;2023-09-19T03:37:43;100331.82;;;16.28;80.35
74790;BME280;63318;52.406;13.416;2023-09-19T03:40:12;100329.98;;;16.28;80.35
74790;BME280;63318;52.406;13.416;2023-09-19T03:42:41;100337.16;;;16.28;80.23
74790;BME280;63318;52.406;13.416;2023-09-19T03:45:10;100342.95;;;16.27;80.23
74790;BME280;63318;52.406;13.416;2023-09-19T03:47:38;100345.35;;;16.25;80.15
74790;BME280;63318;52.406;13.416;2023-09-19T03:50:08;100344.63;;;16.25;80.15
74790;BME280;63318;52.406;13.416;2023-09-19T03:52:36;100346.83;;;16.26;79.95
74790;BME280;63318;52.406;13.416;2023-09-19T03:55:05;100347.96;;;16.26;80.25
74790;BME280;63318;52.406;13.416;2023-09-19T03:57:34;100345.81;;;16.27;80.10
74790;BME280;63318;52.406;13.416;2023-09-19T04:00:02;100345.81;;;16.26;79.94
74790;BME280;63318;52.406;13.416;2023-09-19T04:02:30;100351.41;;;16.27;79.88
74790;BME280;63318;52.406;13.416;2023-09-19T04:04:58;100354.80;;;16.25;79.81
74790;BME280;63318;52.406;13.416;2023-09-19T04:07:27;100352.94;;;16.25;79.51
74790;BME280;63318;52.406;13.416;2023-09-19T04:09:55;100357.38;;;16.24;79.77
74790;BME280;63318;52.406;13.416;2023-09-19T04:12:23;100351.48;;;16.23;79.49
74790;BME280;63318;52.406;13.416;2023-09-19T04:14:51;100352.88;;;16.22;79.66
74790;BME280;63318;52.406;13.416;2023-09-19T04:17:19;100353.60;;;16.21;79.83
74790;BME280;63318;52.406;13.416;2023-09-19T04:19:48;100358.02;;;16.20;79.72
74790;BME280;63318;52.406;13.416;2023-09-19T04:22:16;100361.30;;;16.18;79.67
74790;BME280;63318;52.406;13.416;2023-09-19T04:24:44;100363.54;;;16.16;79.73
74790;BME280;63318;52.406;13.416;2023-09-19T04:27:12;100363.81;;;16.14;79.76
74790;BME280;63318;52.406;13.416;2023-09-19T04:29:40;100367.73;;;16.12;79.73
74790;BME280;63318;52.406;13.416;2023-09-19T04:32:08;100372.15;;;16.10;79.81
74790;BME280;63318;52.406;13.416;2023-09-19T04:34:37;100371.39;;;16.07;79.66
74790;BME280;63318;52.406;13.416;2023-09-19T04:37:05;100376.77;;;16.05;79.73
74790;BME280;63318;52.406;13.416;2023-09-19T04:39:33;100379.36;;;16.02;79.69
74790;BME280;63318;52.406;13.416;2023-09-19T04:42:01;100383.48;;;16.00;79.82
74790;BME280;63318;52.406;13.416;2023-09-19T04:44:29;100389.29;;;15.97;79.71
74790;BME280;63318;52.406;13.416;2023-09-19T04:46:58;100387.55;;;15.95;79.68
74790;BME280;63318;52.406;13.416;2023-09-19T04:49:26;100391.20;;;15.93;79.60
74790;BME280;63318;52.406;13.416;2023-09-19T04:51:54;100395.47;;;15.91;79.70
74790;BME280;63318;52.406;13.416;2023-09-19T04:54:22;100398.61;;;15.88;79.39
74790;BME280;63318;52.406;13.416;2023-09-19T04:56:50;100399.84;;;15.86;79.50
74790;BME280;63318;52.406;13.416;2023-09-19T04:59:19;100400.72;;;15.84;79.39
74790;BME280;63318;52.406;13.416;2023-09-19T05:01:47;100409.16;;;15.82;79.35
74790;BME280;63318;52.406;13.416;2023-09-19T05:04:15;100414.36;;;15.80;79.22
74790;BME280;63318;52.406;13.416;2023-09-19T05:06:43;100413.54;;;15.80;79.17
74790;BME280;63318;52.406;13.416;2023-09-19T05:09:11;100413.56;;;15.79;79.16
74790;BME280;63318;52.406;13.416;2023-09-19T05:11:39;100418.06;;;15.78;78.94
74790;BME280;63318;52.406;13.416;2023-09-19T05:14:08;100425.05;;;15.77;79.04
74790;BME280;63318;52.406;13.416;2023-09-19T05:16:36;100429.22;;;15.75;79.01
74790;BME280;63318;52.406;13.416;2023-09-19T05:19:04;100436.04;;;15.74;78.97
74790;BME280;63318;52.406;13.416;2023-09-19T05:21:32;100434.23;;;15.72;78.79
74790;BME280;63318;52.406;13.416;2023-09-19T05:24:01;100446.73;;;15.71;78.72
74790;BME280;63318;52.406;13.416;2023-09-19T05:26:29;100451.98;;;15.70;78.60
74790;BME280;63318;52.406;13.416;2023-09-19T05:28:57;100456.21;;;15.69;78.67
74790;BME280;63318;52.406;13.416;2023-09-19T05:31:25;100458.02;;;15.68;78.64
74790;BME280;63318;52.406;13.416;2023-09-19T05:33:53;100461.61;;;15.68;78.51
74790;BME280;63318;52.406;13.416;2023-09-19T05:36:22;100466.27;;;15.67;78.51
74790;BME280;63318;52.406;13.416;2023-09-19T05:38:50;100469.36;;;15.67;78.42
74790;BME280;63318;52.406;13.416;2023-09-19T05:41:18;100465.50;;;15.66;78.45
74790;BME280;63318;52.406;13.416;2023-09-19T05:43:46;100473.97;;;15.66;78.34
74790;BME280;63318;52.406;13.416;2023-09-19T05:46:16;100481.41;;;15.66;78.02
74790;BME280;63318;52.406;13.416;2023-09-19T05:48:45;100485.65;;;15.67;78.13
74790;BME280;63318;52.406;13.416;2023-09-19T05:51:13;100490.70;;;15.67;77.94
74790;BME280;63318;52.406;13.416;2023-09-19T05:53:41;100492.19;;;15.68;77.84
74790;BME280;63318;52.406;13.416;2023-09-19T05:56:09;100503.14;;;15.68;77.95
74790;BME280;63318;52.406;13.416;2023-09-19T05:58:37;100511.77;;;15.69;77.81
74790;BME280;63318;52.406;13.416;2023-09-19T06:01:06;100507.77;;;15.70;77.81
74790;BME280;63318;52.406;13.416;2023-09-19T06:03:34;100507.92;;;15.71;77.70
74790;BME280;63318;52.406;13.416;2023-09-19T06:06:02;100506.41;;;15.73;77.67
74790;BME280;63318;52.406;13.416;2023-09-19T06:08:30;100514.21;;;15.77;77.57
74790;BME280;63318;52.406;13.416;2023-09-19T06:10:59;100516.67;;;15.80;77.46
74790;BME280;63318;52.406;13.416;2023-09-19T06:13:29;100525.05;;;15.82;77.36
74790;BME280;63318;52.406;13.416;2023-09-19T06:15:57;100533.51;;;15.84;77.28
74790;BME280;63318;52.406;13.416;2023-09-19T06:18:25;100533.95;;;15.86;77.07
74790;BME280;63318;52.406;13.416;2023-09-19T06:20:54;100534.46;;;15.91;76.97
74790;BME280;63318;52.406;13.416;2023-09-19T06:23:22;100538.09;;;15.97;76.84
74790;BME280;63318;52.406;13.416;2023-09-19T06:25:50;100540.70;;;16.03;76.72
74790;BME280;63318;52.406;13.416;2023-09-19T06:28:19;100538.96;;;16.07;76.62
74790;BME280;63318;52.406;13.416;2023-09-19T06:30:47;100546.93;;;16.12;76.44
74790;BME280;63318;52.406;13.416;2023-09-19T06:33:15;100543.34;;;16.17;76.42
74790;BME280;63318;52.406;13.416;2023-09-19T06:35:44;100544.73;;;16.20;76.20
74790;BME280;63318;52.406;13.416;2023-09-19T06:38:12;100544.23;;;16.24;76.10
74790;BME280;63318;52.406;13.416;2023-09-19T06:40:40;100544.21;;;16.30;75.73
74790;BME280;63318;52.406;13.416;2023-09-19T06:43:09;100538.79;;;16.36;75.74
74790;BME280;63318;52.406;13.416;2023-09-19T06:45:37;100545.02;;;16.44;75.72
74790;BME280;63318;52.406;13.416;2023-09-19T06:48:06;100551.23;;;16.56;75.58
74790;BME280;63318;52.406;13.416;2023-09-19T06:50:35;100552.45;;;16.67;75.50
74790;BME280;63318;52.406;13.416;2023-09-19T06:53:03;100555.35;;;16.76;75.25
74790;BME280;63318;52.406;13.416;2023-09-19T06:55:31;100557.34;;;16.86;75.00
74790;BME280;63318;52.406;13.416;2023-09-19T06:57:59;100560.17;;;16.96;74.89
74790;BME280;63318;52.406;13.416;2023-09-19T07:00:28;100563.20;;;17.06;74.60
74790;BME280;63318;52.406;13.416;2023-09-19T07:03:00;100562.60;;;17.16;74.53
74790;BME280;63318;52.406;13.416;2023-09-19T07:05:29;100561.60;;;17.28;74.33
74790;BME280;63318;52.406;13.416;2023-09-19T07:07:58;100563.15;;;17.44;74.02
74790;BME280;63318;52.406;13.416;2023-09-19T07:10:27;100567.60;;;17.66;73.48
74790;BME280;63318;52.406;13.416;2023-09-19T07:12:59;100566.65;;;17.90;73.53
74790;BME280;63318;52.406;13.416;2023-09-19T07:15:26;100568.89;;;18.17;72.69
74790;BME280;63318;52.406;13.416;2023-09-19T07:17:54;100560.21;;;18.42;72.48
74790;BME280;63318;52.406;13.416;2023-09-19T07:20:24;100561.92;;;18.68;71.60
74790;BME280;63318;52.406;13.416;2023-09-19T07:22:52;100566.22;;;18.94;70.84
74790;BME280;63318;52.406;13.416;2023-09-19T07:25:21;100566.43;;;19.18;70.68
74790;BME280;63318;52.406;13.416;2023-09-19T07:27:49;100571.35;;;19.40;70.18
74790;BME280;63318;52.406;13.416;2023-09-19T07:30:18;100573.90;;;19.53;70.21
74790;BME280;63318;52.406;13.416;2023-09-19T07:32:46;100570.70;;;19.58;69.78
74790;BME280;63318;52.406;13.416;2023-09-19T07:35:15;100579.64;;;19.66;69.28
74790;BME280;63318;52.406;13.416;2023-09-19T07:37:43;100586.83;;;19.68;68.64
74790;BME280;63318;52.406;13.416;2023-09-19T07:40:12;100590.71;;;19.67;67.67
74790;BME280;63318;52.406;13.416;2023-09-19T07:42:41;100593.48;;;19.77;68.03
74790;BME280;63318;52.406;13.416;2023-09-19T07:45:10;100591.16;;;19.95;67.66
74790;BME280;63318;52.406;13.416;2023-09-19T07:47:38;100590.05;;;20.07;66.77
74790;BME280;63318;52.406;13.416;2023-09-19T07:50:08;100594.20;;;20.20;66.27
74790;BME280;63318;52.406;13.416;2023-09-19T07:52:36;100606.11;;;20.25;65.73
74790;BME280;63318;52.406;13.416;2023-09-19T07:55:04;100601.63;;;20.22;65.23
74790;BME280;63318;52.406;13.416;2023-09-19T07:57:33;100602.39;;;20.31;65.40
74790;BME280;63318;52.406;13.416;2023-09-19T08:00:01;100600.98;;;20.36;65.47
74790;BME280;63318;52.406;13.416;2023-09-19T08:02:36;100611.45;;;20.43;65.14
74790;BME280;63318;52.406;13.416;2023-09-19T08:05:06;100619.63;;;20.52;64.51
74790;BME280;63318;52.406;13.416;2023-09-19T08:07:35;100624.79;;;20.65;64.93
74790;BME280;63318;52.406;13.416;2023-09-19T08:10:03;100629.48;;;20.69;63.84
74790;BME280;63318;52.406;13.416;2023-09-19T08:12:31;100630.65;;;20.66;63.87
74790;BME280;63318;52.406;13.416;2023-09-19T08:15:00;100627.07;;;20.63;63.42
74790;BME280;63318;52.406;13.416;2023-09-19T08:17:28;100627.90;;;20.70;63.21
74790;BME280;63318;52.406;13.416;2023-09-19T08:19:56;100628.06;;;20.83;61.73
74790;BME280;63318;52.406;13.416;2023-09-19T08:22:25;100625.14;;;20.93;62.80
74790;BME280;63318;52.406;13.416;2023-09-19T08:24:53;100616.87;;;21.01;62.41
74790;BME280;63318;52.406;13.416;2023-09-19T08:27:21;100624.39;;;20.97;61.85
74790;BME280;63318;52.406;13.416;2023-09-19T08:29:50;100622.39;;;20.87;60.86
74790;BME280;63318;52.406;13.416;2023-09-19T08:32:18;100623.06;;;20.74;61.43
74790;BME280;63318;52.406;13.416;2023-09-19T08:34:46;100622.41;;;20.62;61.06
74790;BME280;63318;52.406;13.416;2023-09-19T08:37:14;100628.27;;;20.55;62.01
74790;BME280;63318;52.406;13.416;2023-09-19T08:39:42;100632.48;;;20.51;61.73
74790;BME280;63318;52.406;13.416;2023-09-19T08:42:11;100628.86;;;20.51;61.07
74790;BME280;63318;52.406;13.416;2023-09-19T08:44:39;100631.04;;;20.52;61.41
74790;BME280;63318;52.406;13.416;2023-09-19T08:47:11;100636.00;;;20.50;61.21
74790;BME280;63318;52.406;13.416;2023-09-19T08:49:45;100637.18;;;20.58;61.41
74790;BME280;63318;52.406;13.416;2023-09-19T08:52:22;100642.30;;;20.77;61.08
74790;BME280;63318;52.406;13.416;2023-09-19T08:54:55;100645.72;;;20.97;60.67
74790;BME280;63318;52.406;13.416;2023-09-19T08:57:29;100647.31;;;21.17;60.09
74790;BME280;63318;52.406;13.416;2023-09-19T09:00:02;100643.73;;;21.31;58.61
74790;BME280;63318;52.406;13.416;2023-09-19T09:02:33;100641.04;;;21.33;59.06
74790;BME280;63318;52.406;13.416;2023-09-19T09:05:02;100646.59;;;21.33;57.62
74790;BME280;63318;52.406;13.416;2023-09-19T09:07:32;100652.22;;;21.29;57.73
74790;BME280;63318;52.406;13.416;2023-09-19T09:10:02;100657.72;;;21.21;58.46
74790;BME280;63318;52.406;13.416;2023-09-19T09:12:31;100655.27;;;21.27;58.06
74790;BME280;63318;52.406;13.416;2023-09-19T09:15:01;100658.10;;;21.38;57.98
74790;BME280;63318;52.406;13.416;2023-09-19T09:17:30;100653.33;;;21.54;57.92
74790;BME280;63318;52.406;13.416;2023-09-19T09:20:01;100654.74;;;21.62;57.64
74790;BME280;63318;52.406;13.416;2023-09-19T09:22:29;100650.86;;;21.73;57.52
74790;BME280;63318;52.406;13.416;2023-09-19T09:24:57;100655.48;;;21.76;56.50
74790;BME280;63318;52.406;13.416;2023-09-19T09:27:26;100650.64;;;21.85;56.51
74790;BME280;63318;52.406;13.416;2023-09-19T09:29:54;100655.23;;;21.95;55.63
74790;BME280;63318;52.406;13.416;2023-09-19T09:32:24;100660.57;;;21.95;55.64
74790;BME280;63318;52.406;13.416;2023-09-19T09:34:54;100662.42;;;21.95;54.82
74790;BME280;63318;52.406;13.416;2023-09-19T09:37:24;100668.73;;;21.91;54.74
74790;BME280;63318;52.406;13.416;2023-09-19T09:39:54;100673.64;;;21.97;54.31
74790;BME280;63318;52.406;13.416;2023-09-19T09:42:32;100676.92;;;22.18;54.94
74790;BME280;63318;52.406;13.416;2023-09-19T09:45:19;100675.31;;;22.35;54.44
74790;BME280;63318;52.406;13.416;2023-09-19T09:47:48;100669.52;;;22.41;54.35
74790;BME280;63318;52.406;13.416;2023-09-19T09:50:24;100672.73;;;22.52;52.68
74790;BME280;63318;52.406;13.416;2023-09-19T09:52:53;100671.31;;;22.63;53.24
74790;BME280;63318;52.406;13.416;2023-09-19T09:55:21;100671.39;;;22.58;52.77
74790;BME280;63318;52.406;13.416;2023-09-19T09:58:03;100668.58;;;22.59;52.61
74790;BME280;63318;52.406;13.416;2023-09-19T10:00:53;100670.14;;;22.62;51.27
74790;BME280;63318;52.406;13.416;2023-09-19T10:03:23;100674.49;;;22.71;51.84
74790;BME280;63318;52.406;13.416;2023-09-19T10:05:58;100672.35;;;22.67;51.09
74790;BME280;63318;52.406;13.416;2023-09-19T10:08:26;100674.15;;;22.73;52.54
74790;BME280;63318;52.406;13.416;2023-09-19T10:10:54;100676.41;;;22.81;52.09
74790;BME280;63318;52.406;13.416;2023-09-19T10:13:23;100677.66;;;22.88;50.96
74790;BME280;63318;52.406;13.416;2023-09-19T10:15:55;100683.19;;;22.94;51.06
74790;BME280;63318;52.406;13.416;2023-09-19T10:18:25;100686.82;;;22.93;50.78
74790;BME280;63318;52.406;13.416;2023-09-19T10:20:54;100683.32;;;22.90;50.64
74790;BME280;63318;52.406;13.416;2023-09-19T10:23:24;100686.54;;;22.95;50.29
74790;BME280;63318;52.406;13.416;2023-09-19T10:25:53;100683.00;;;22.95;50.33
74790;BME280;63318;52.406;13.416;2023-09-19T10:28:22;100678.98;;;22.91;50.85
74790;BME280;63318;52.406;13.416;2023-09-19T10:30:51;100675.17;;;22.99;51.52
74790;BME280;63318;52.406;13.416;2023-09-19T10:33:21;100670.96;;;23.13;50.87
74790;BME280;63318;52.406;13.416;2023-09-19T10:35:51;100674.83;;;23.22;50.04
74790;BME280;63318;52.406;13.416;2023-09-19T10:38:22;100671.56;;;23.30;49.82
74790;BME280;63318;52.406;13.416;2023-09-19T10:40:52;100669.74;;;23.39;49.18
74790;BME280;63318;52.406;13.416;2023-09-19T10:43:24;100669.84;;;23.48;49.23
74790;BME280;63318;52.406;13.416;2023-09-19T10:45:57;100662.27;;;23.58;48.76
74790;BME280;63318;52.406;13.416;2023-09-19T10:48:28;100662.98;;;23.63;47.79
74790;BME280;63318;52.406;13.416;2023-09-19T10:51:01;100672.80;;;23.64;47.58
74790;BME280;63318;52.406;13.416;2023-09-19T10:53:32;100664.94;;;23.64;47.41
74790;BME280;63318;52.406;13.416;2023-09-19T10:56:09;100667.84;;;23.64;47.37
74790;BME280;63318;52.406;13.416;2023-09-19T10:58:37;100674.52;;;23.59;47.24
74790;BME280;63318;52.406;13.416;2023-09-19T11:01:06;100675.65;;;23.59;47.43
74790;BME280;63318;52.406;13.416;2023-09-19T11:03:35;100672.64;;;23.59;47.02
74790;BME280;63318;52.406;13.416;2023-09-19T11:06:04;100677.52;;;23.56;45.97
74790;BME280;63318;52.406;13.416;2023-09-19T11:08:52;100680.74;;;23.56;46.69
74790;BME280;63318;52.406;13.416;2023-09-19T11:11:41;100680.48;;;23.54;46.80
74790;BME280;63318;52.406;13.416;2023-09-19T11:14:32;100682.29;;;23.53;46.19
74790;BME280;63318;52.406;13.416;2023-09-19T11:17:32;100678.70;;;23.46;46.21
74790;BME280;63318;52.406;13.416;2023-09-19T11:20:24;100677.17;;;23.33;45.28
74790;BME280;63318;52.406;13.416;2023-09-19T11:23:18;100682.02;;;23.29;46.45
74790;BME280;63318;52.406;13.416;2023-09-19T11:25:46;100683.44;;;23.29;46.32
74790;BME280;63318;52.406;13.416;2023-09-19T11:28:34;100683.08;;;23.22;45.78
74790;BME280;63318;52.406;13.416;2023-09-19T11:34:44;100685.34;;;23.11;46.51
74790;BME280;63318;52.406;13.416;2023-09-19T11:40:27;100685.44;;;22.98;46.62
74790;BME280;63318;52.406;13.416;2023-09-19T11:42:55;100691.00;;;22.90;46.54
74790;BME280;63318;52.406;13.416;2023-09-19T11:48:29;100690.81;;;22.75;46.24
74790;BME280;63318;52.406;13.416;2023-09-19T11:51:00;100694.67;;;22.75;46.59
74790;BME280;63318;52.406;13.416;2023-09-19T11:53:32;100696.23;;;22.73;46.19
74790;BME280;63318;52.406;13.416;2023-09-19T11:56:01;100698.11;;;22.76;45.69
74790;BME280;63318;52.406;13.416;2023-09-19T11:58:31;100695.98;;;22.80;46.33
74790;BME280;63318;52.406;13.416;2023-09-19T12:01:01;100696.61;;;22.77;46.11
74790;BME280;63318;52.406;13.416;2023-09-19T12:03:31;100698.02;;;22.71;45.76
74790;BME280;63318;52.406;13.416;2023-09-19T12:05:59;100697.02;;;22.60;44.54
74790;BME280;63318;52.406;13.416;2023-09-19T12:08:28;100697.08;;;22.50;44.58
74790;BME280;63318;52.406;13.416;2023-09-19T12:10:56;100695.64;;;22.41;45.46
74790;BME280;63318;52.406;13.416;2023-09-19T12:13:25;100692.17;;;22.36;45.01
74790;BME280;63318;52.406;13.416;2023-09-19T12:15:53;100693.59;;;22.30;44.80
74790;BME280;63318;52.406;13.416;2023-09-19T12:18:30;100699.36;;;22.28;45.43
74790;BME280;63318;52.406;13.416;2023-09-19T12:20:59;100698.08;;;22.34;45.51
74790;BME280;63318;52.406;13.416;2023-09-19T12:23:27;100696.52;;;22.40;44.69
74790;BME280;63318;52.406;13.416;2023-09-19T12:25:55;100693.08;;;22.44;44.81
74790;BME280;63318;52.406;13.416;2023-09-19T12:28:26;100695.98;;;22.44;44.69
74790;BME280;63318;52.406;13.416;2023-09-19T12:30:55;100691.52;;;22.48;44.91
74790;BME280;63318;52.406;13.416;2023-09-19T12:33:23;100682.15;;;22.54;45.03
74790;BME280;63318;52.406;13.416;2023-09-19T12:35:52;100682.64;;;22.59;44.91
74790;BME280;63318;52.406;13.416;2023-09-19T12:38:27;100688.23;;;22.63;44.94
74790;BME280;63318;52.406;13.416;2023-09-19T12:40:56;100686.48;;;22.69;44.91
74790;BME280;63318;52.406;13.416;2023-09-19T12:43:24;100688.83;;;22.75;44.36
74790;BME280;63318;52.406;13.416;2023-09-19T12:45:52;100686.49;;;22.77;44.16
74790;BME280;63318;52.406;13.416;2023-09-19T12:48:23;100692.08;;;22.80;43.87
74790;BME280;63318;52.406;13.416;2023-09-19T12:51:05;100680.08;;;22.79;42.88
74790;BME280;63318;52.406;13.416;2023-09-19T12:53:34;100676.80;;;22.75;43.63
74790;BME280;63318;52.406;13.416;2023-09-19T12:56:02;100679.08;;;22.73;43.91
74790;BME280;63318;52.406;13.416;2023-09-19T12:58:31;100672.74;;;22.72;44.29
74790;BME280;63318;52.406;13.416;2023-09-19T13:00:59;100677.83;;;22.75;44.05
74790;BME280;63318;52.406;13.416;2023-09-19T13:03:29;100675.39;;;22.77;44.22
74790;BME280;63318;52.406;13.416;2023-09-19T13:05:58;100672.20;;;22.81;44.12
74790;BME280;63318;52.406;13.416;2023-09-19T13:08:28;100676.95;;;22.86;43.91